Panama City, FL (32411)

5:05 PM CDT on June 22, 2017 (GMT -0500)
The Cove | | Change Station

Elev 15 ft 30.16 °N, 85.65 °W | Updated 14 seconds ago

Clear
Clear
87.4 °F
Feels Like 96 °F
N
2.7
Wind Variable Wind from SW
Gusts 4.9 mph

Today
High -- | Low -- °F
--% Chance of Precip.
Yesterday
High -- | Low -- °F
Precip. -- in
Pressure 30.00 in
Visibility 10.0 miles
Clouds Clear
Heat Index 96 °F
Dew Point 74 °F
Humidity 65%
Rainfall 0.00 in
Snow Depth Not available.
5:41 AM 7:47 PM
Waning Crescent, 2% visible
METAR KPAM 222156Z AUTO 16015KT 10SM CLR 30/26 A2999 RMK AO2 SLP159 T02960257 $
Pressure 30.00 in
Visibility 10.0 miles
Clouds Clear
Heat Index 96 °F
Dew Point 74 °F
Humidity 65%
Rainfall 0.00 in
Snow Depth Not available.
5:41 AM 7:47 PM
Waning Crescent, 2% visible
METAR KPAM 222156Z AUTO 16015KT 10SM CLR 30/26 A2999 RMK AO2 SLP159 T02960257 $

Get Your Daily Forecast Email!

Thanks for signing up!

Be on the lookout for a verification email in your inbox.

You'll start receiving severe weather alerts in your inbox..

×

10-Day Weather Forecast

Almanac

Astronomy

Jun. 22, 2017 Rise Set
Actual Time
Civil Twilight
Nautical Twilight
Astronomical Twilight
Moon
Length of Visible Light
Length of Day
Tomorrow will be .
, % of the Moon is Illuminated

Today's Extremes

State Highs State Lows

Community

WunderPhotos

Category 6

Welcome to Category 6. This is the collective home for Weather Underground's featured writeups by Dr. Jeff Masters (right), Bob Henson (left), Chris Burt, and other regular contributors.

Nearby

Air Quality

  Air Quality AQ Index Pollutant
Not available.

Snow Depth

Station Depth Elevation

Earthquake Activity

City Distance Mag. Time & Date
Minimum magnitude displayed is 2.5.

Coastal Water Temperatures

Place Temperature

Stations

Nearby Weather Stations

Station Location Temp. Windchill Dew Point Humidity Wind Precip. Elev Updated Type
                   

Watches & Warnings

High Surf Advisory, Coastal Hazard Statement
Issued: 3:16 AM CDT Jun. 22, 2017 – National Weather Service

... High surf advisory remains in effect until 11 am EDT /10 am
CDT/ Friday...
... High rip current risk remains in effect through Friday
evening...

* surf... 6 to 8 feet with occasional higher sets along the Bay and
Walton County beaches. Surf 4 to 6 feet in Gulf County.

* Timing... through Friday.

* Impacts... minor coastal erosion and life threatening rip
currents.

Precautionary/preparedness actions...

A high surf advisory means that high surf will affect beaches in
the advisory area... producing localized beach erosion and
dangerous swimming conditions.

There is a high risk of rip currents.

Rip currents are powerful channels of water flowing quickly away
from shore.